Time;durP1;ratioP1;P1;durP2;ratioP2;P2;SDS_P1;SDS_P2;PMS_P1;PMS_P2;Temp;Humidity;BMP_temperature;BMP_pressure;BME280_temperature;BME280_humidity;BME280_pressure;Samples;Min_cycle;Max_cycle;Signal;HPM_P1;HPM_P2
2023/04/11 00:01:31;;;;;;;5.97;3.42;;;10.80;92.30;;;;;;5051764;28;20024;-74
2023/04/11 00:03:57;;;;;;;9.60;4.75;;;10.50;92.60;;;;;;5050699;28;20029;-73
2023/04/11 00:06:23;;;;;;;7.32;3.42;;;10.40;92.80;;;;;;5049167;28;20532;-73
2023/04/11 00:08:49;;;;;;;5.90;3.13;;;10.40;92.80;;;;;;5052042;28;20025;-73
2023/04/11 00:11:15;;;;;;;5.93;3.28;;;10.40;93.00;;;;;;5045946;28;20041;-74
2023/04/11 00:13:41;;;;;;;6.45;3.42;;;10.30;92.90;;;;;;5050812;28;20478;-73
2023/04/11 00:16:08;;;;;;;5.25;3.35;;;10.30;93.00;;;;;;5052197;28;20024;-74
2023/04/11 00:18:36;;;;;;;6.82;3.83;;;10.30;92.80;;;;;;5050741;28;20478;-74
2023/04/11 00:21:07;;;;;;;6.60;3.72;;;10.50;92.70;;;;;;5049587;28;20031;-73
2023/04/11 00:23:32;;;;;;;5.85;3.42;;;10.40;92.70;;;;;;5048776;28;20033;-73
2023/04/11 00:25:58;;;;;;;6.25;3.53;;;10.50;92.70;;;;;;5048736;28;20021;-74
2023/04/11 00:28:24;;;;;;;5.70;3.15;;;10.50;92.60;;;;;;5049396;28;20595;-73
2023/04/11 00:30:50;;;;;;;7.70;3.72;;;10.40;92.70;;;;;;5047881;28;20048;-73
2023/04/11 00:33:15;;;;;;;5.30;3.25;;;10.40;92.80;;;;;;5051326;28;20025;-73
2023/04/11 00:35:41;;;;;;;7.03;3.60;;;10.40;92.80;;;;;;5049751;28;20039;-73
2023/04/11 00:38:07;;;;;;;7.05;3.75;;;10.40;92.90;;;;;;5050444;28;20075;-73
2023/04/11 00:40:33;;;;;;;6.50;3.50;;;10.20;93.20;;;;;;5049968;28;20492;-74
2023/04/11 00:42:58;;;;;;;5.35;2.88;;;10.30;93.10;;;;;;5050772;28;20390;-73
2023/04/11 00:45:24;;;;;;;8.30;4.47;;;10.40;93.00;;;;;;5050624;28;20390;-74
2023/04/11 00:47:50;;;;;;;6.75;3.38;;;10.30;93.10;;;;;;5049319;28;20551;-73
2023/04/11 00:50:16;;;;;;;5.82;3.53;;;10.20;93.20;;;;;;5049317;28;20566;-74
2023/04/11 00:52:45;;;;;;;5.93;3.13;;;10.00;93.60;;;;;;5050912;28;20036;-73
2023/04/11 00:55:11;;;;;;;8.23;4.00;;;10.00;93.60;;;;;;5050052;28;20051;-73
2023/04/11 00:57:37;;;;;;;6.55;3.83;;;10.00;93.70;;;;;;5048515;28;20514;-74
2023/04/11 01:00:04;;;;;;;6.75;3.80;;;9.90;93.90;;;;;;5050650;28;20032;-73
2023/04/11 01:02:29;;;;;;;8.60;3.80;;;10.00;93.80;;;;;;5050387;28;20474;-74
2023/04/11 01:04:56;;;;;;;5.72;2.92;;;10.00;93.80;;;;;;5049340;28;20066;-73
2023/04/11 01:07:23;;;;;;;6.18;3.40;;;10.00;94.00;;;;;;5051015;28;20056;-73
2023/04/11 01:09:50;;;;;;;12.13;4.07;;;9.90;94.10;;;;;;5050058;28;20063;-73
2023/04/11 01:12:16;;;;;;;7.13;4.15;;;10.00;94.00;;;;;;5050018;28;20032;-73
2023/04/11 01:14:43;;;;;;;6.25;3.30;;;10.10;93.90;;;;;;5049451;28;20029;-73
2023/04/11 01:17:11;;;;;;;6.20;3.83;;;10.20;93.80;;;;;;5050210;28;20025;-73
2023/04/11 01:19:37;;;;;;;6.07;3.40;;;10.20;93.70;;;;;;5049239;28;20033;-73
2023/04/11 01:22:03;;;;;;;7.82;3.92;;;10.20;93.70;;;;;;5049976;28;20037;-73
2023/04/11 01:24:29;;;;;;;7.13;3.28;;;10.20;93.70;;;;;;5048824;28;20033;-74
2023/04/11 01:26:55;;;;;;;5.28;3.38;;;10.30;93.60;;;;;;5048968;28;20036;-73
2023/04/11 01:29:21;;;;;;;6.95;3.38;;;10.20;93.60;;;;;;5047088;28;20028;-73
2023/04/11 01:31:49;;;;;;;5.68;3.03;;;10.30;93.70;;;;;;5048799;28;20041;-73
2023/04/11 01:34:16;;;;;;;8.85;4.07;;;10.20;93.80;;;;;;5047181;28;20035;-73
2023/04/11 01:36:42;;;;;;;6.07;3.10;;;10.30;93.80;;;;;;5046871;28;20056;-74
2023/04/11 01:39:09;;;;;;;7.72;4.25;;;10.30;93.70;;;;;;5047239;28;20116;-74
2023/04/11 01:41:35;;;;;;;6.63;3.33;;;10.40;93.80;;;;;;5049492;28;20025;-73
2023/04/11 01:44:02;;;;;;;6.65;3.70;;;10.30;93.70;;;;;;5049026;28;20677;-73
2023/04/11 01:46:28;;;;;;;7.47;3.90;;;10.30;93.80;;;;;;5048923;28;20394;-73
2023/04/11 01:48:55;;;;;;;6.00;3.25;;;10.30;93.80;;;;;;5048732;28;20029;-74
2023/04/11 01:51:21;;;;;;;5.63;3.30;;;10.30;93.60;;;;;;5048870;28;20076;-74
2023/04/11 01:53:46;;;;;;;6.05;3.38;;;10.40;93.80;;;;;;5048991;28;20048;-72
2023/04/11 01:56:13;;;;;;;6.68;3.72;;;10.40;93.60;;;;;;5049811;28;20047;-72
2023/04/11 01:58:40;;;;;;;6.82;4.07;;;10.40;93.60;;;;;;5044271;28;20482;-74
2023/04/11 02:01:06;;;;;;;7.07;3.47;;;10.40;93.50;;;;;;5049034;28;20029;-73
2023/04/11 02:03:32;;;;;;;8.23;3.90;;;10.40;93.60;;;;;;5049061;28;20402;-74
2023/04/11 02:05:57;;;;;;;6.93;3.63;;;10.40;93.50;;;;;;5045157;28;20025;-74
2023/04/11 02:08:23;;;;;;;5.68;3.38;;;10.40;93.60;;;;;;5050354;28;20470;-73
2023/04/11 02:10:48;;;;;;;9.27;3.55;;;10.50;93.60;;;;;;5048336;28;20170;-73
2023/04/11 02:13:14;;;;;;;6.05;3.58;;;10.30;93.70;;;;;;5048217;28;20036;-73
2023/04/11 02:15:40;;;;;;;6.60;3.67;;;10.30;93.90;;;;;;5049468;28;20021;-73
2023/04/11 02:18:08;;;;;;;8.15;4.32;;;10.30;93.90;;;;;;5045642;28;20502;-73
2023/04/11 02:20:36;;;;;;;8.07;3.75;;;10.30;94.00;;;;;;5049070;28;20056;-74
2023/04/11 02:23:03;;;;;;;10.43;4.28;;;10.40;94.10;;;;;;5047004;28;20032;-74
2023/04/11 02:25:29;;;;;;;5.70;3.25;;;10.30;94.10;;;;;;5047201;28;20437;-73
2023/04/11 02:27:55;;;;;;;5.93;3.45;;;10.30;94.10;;;;;;5048262;28;20580;-73
2023/04/11 02:30:21;;;;;;;7.70;3.97;;;10.40;93.80;;;;;;5046796;28;20041;-73
2023/04/11 02:32:48;;;;;;;6.80;3.85;;;10.40;93.90;;;;;;5048050;28;20033;-73
2023/04/11 02:35:15;;;;;;;9.30;3.92;;;10.50;93.70;;;;;;5047749;28;20123;-73
2023/04/11 02:37:41;;;;;;;5.93;3.50;;;10.30;93.80;;;;;;5047698;28;20029;-73
2023/04/11 02:40:08;;;;;;;6.00;3.45;;;10.30;93.90;;;;;;5048349;28;20033;-73
2023/04/11 02:42:34;;;;;;;7.22;3.92;;;10.30;94.00;;;;;;5048109;28;20086;-73
2023/04/11 02:45:00;;;;;;;8.18;3.78;;;10.40;93.90;;;;;;5046178;28;20074;-73
2023/04/11 02:47:26;;;;;;;9.25;4.10;;;10.50;93.60;;;;;;5048726;28;20025;-73
2023/04/11 02:49:52;;;;;;;7.72;3.55;;;10.50;93.60;;;;;;5047574;28;20467;-73
2023/04/11 02:52:18;;;;;;;6.93;4.07;;;10.40;93.70;;;;;;5047550;28;20036;-74
2023/04/11 02:54:44;;;;;;;8.73;4.35;;;10.30;94.10;;;;;;5045235;28;20040;-73
2023/04/11 02:57:11;;;;;;;6.20;3.63;;;10.10;94.40;;;;;;5048375;28;20115;-73
2023/04/11 02:59:37;;;;;;;8.30;3.55;;;10.10;94.60;;;;;;5047608;28;20037;-73
2023/04/11 03:02:03;;;;;;;8.57;3.75;;;10.10;94.50;;;;;;5046815;28;20029;-73
2023/04/11 03:04:28;;;;;;;8.07;4.05;;;10.10;94.80;;;;;;5042408;28;20170;-73
2023/04/11 03:06:54;;;;;;;7.50;3.95;;;10.20;94.60;;;;;;5042958;28;20029;-73
2023/04/11 03:09:22;;;;;;;5.95;3.33;;;10.20;94.70;;;;;;5043028;28;20127;-73
2023/04/11 03:11:47;;;;;;;6.35;3.55;;;10.10;94.50;;;;;;5042006;28;20033;-73
2023/04/11 03:14:13;;;;;;;6.25;3.58;;;10.20;94.60;;;;;;5043761;28;20029;-73
2023/04/11 03:16:39;;;;;;;6.95;3.80;;;10.20;94.50;;;;;;5037854;28;20048;-73
2023/04/11 03:19:05;;;;;;;6.65;3.58;;;10.30;94.50;;;;;;5040197;28;20280;-74
2023/04/11 03:21:30;;;;;;;7.38;3.72;;;10.20;94.60;;;;;;5039460;28;20033;-73
2023/04/11 03:23:56;;;;;;;5.93;3.75;;;10.10;94.60;;;;;;5042745;28;20028;-74
2023/04/11 03:26:25;;;;;;;5.25;3.00;;;10.10;94.70;;;;;;5043030;28;20028;-74
2023/04/11 03:28:52;;;;;;;6.20;3.83;;;10.20;94.60;;;;;;5041511;28;20029;-73
2023/04/11 03:31:18;;;;;;;7.03;4.95;;;10.10;94.80;;;;;;5041808;28;20509;-73
2023/04/11 03:33:45;;;;;;;6.47;3.58;;;10.10;94.90;;;;;;5044987;28;20028;-73
2023/04/11 03:36:11;;;;;;;7.32;3.65;;;10.10;95.20;;;;;;5043022;28;20036;-73
2023/04/11 03:38:37;;;;;;;6.47;3.78;;;10.00;95.20;;;;;;5044030;28;20032;-73
2023/04/11 03:41:03;;;;;;;7.78;4.32;;;10.00;94.90;;;;;;5045123;28;20032;-73
2023/04/11 03:43:28;;;;;;;6.35;3.22;;;10.00;94.80;;;;;;5046152;28;20059;-74
2023/04/11 03:45:54;;;;;;;6.28;3.60;;;10.10;94.80;;;;;;5044547;28;20048;-73
2023/04/11 03:48:20;;;;;;;6.40;3.63;;;10.00;94.70;;;;;;5044127;28;20040;-73
2023/04/11 03:50:46;;;;;;;7.40;4.40;;;10.00;94.80;;;;;;5043040;28;20516;-74
2023/04/11 03:53:11;;;;;;;5.90;3.58;;;10.00;94.80;;;;;;5047309;28;20394;-74
2023/04/11 03:55:37;;;;;;;7.63;4.22;;;10.10;94.60;;;;;;5046636;28;20547;-73
2023/04/11 03:58:03;;;;;;;7.57;4.25;;;10.10;94.70;;;;;;5045978;28;20408;-73
2023/04/11 04:00:29;;;;;;;5.72;3.70;;;10.10;94.90;;;;;;5045233;28;20033;-74
2023/04/11 04:02:54;;;;;;;5.75;3.13;;;10.00;95.00;;;;;;5045379;28;20491;-74
2023/04/11 04:05:20;;;;;;;7.25;3.88;;;10.00;95.70;;;;;;5043075;28;20044;-74
2023/04/11 04:07:46;;;;;;;7.38;4.10;;;9.80;95.10;;;;;;5043694;28;20032;-74
2023/04/11 04:10:11;;;;;;;8.50;4.45;;;10.00;94.80;;;;;;5045025;28;20029;-73
2023/04/11 04:12:38;;;;;;;8.13;4.78;;;10.10;95.00;;;;;;5045778;28;20072;-73
2023/04/11 04:15:04;;;;;;;7.53;4.13;;;10.00;95.30;;;;;;5046540;28;20048;-74
2023/04/11 04:17:30;;;;;;;7.15;3.88;;;9.90;95.60;;;;;;5046287;28;20032;-74
2023/04/11 04:19:56;;;;;;;9.95;3.78;;;9.80;95.70;;;;;;5044933;28;20033;-74
2023/04/11 04:22:22;;;;;;;9.65;3.60;;;9.90;95.90;;;;;;5044736;28;20060;-74
2023/04/11 04:24:48;;;;;;;8.50;4.20;;;9.80;96.30;;;;;;5043020;28;20115;-73
2023/04/11 04:27:16;;;;;;;5.85;3.40;;;9.60;96.00;;;;;;5045874;28;20036;-74
2023/04/11 04:29:46;;;;;;;6.80;4.05;;;9.50;96.50;;;;;;5045651;28;20090;-73
2023/04/11 04:32:19;;;;;;;6.68;3.58;;;9.50;96.40;;;;;;5046941;28;20025;-74
2023/04/11 04:34:48;;;;;;;8.87;4.07;;;9.60;96.20;;;;;;5044174;28;20048;-73
2023/04/11 04:37:23;;;;;;;8.38;4.13;;;9.70;96.10;;;;;;5043208;28;20104;-73
2023/04/11 04:40:07;;;;;;;6.43;3.38;;;9.70;95.90;;;;;;5042594;28;20025;-73
2023/04/11 04:42:35;;;;;;;7.47;3.80;;;9.70;95.70;;;;;;5043191;28;20052;-74
2023/04/11 04:45:01;;;;;;;6.10;3.88;;;9.70;96.20;;;;;;5043835;28;20112;-73
2023/04/11 04:47:32;;;;;;;6.22;3.40;;;9.70;96.60;;;;;;5040492;28;20033;-73
2023/04/11 04:49:58;;;;;;;7.15;4.40;;;9.40;96.40;;;;;;5042729;28;20485;-73
2023/04/11 04:52:26;;;;;;;10.40;4.63;;;9.30;96.70;;;;;;5043162;28;20485;-73
2023/04/11 04:54:52;;;;;;;7.28;3.63;;;9.20;96.70;;;;;;5041900;28;20036;-73
2023/04/11 04:57:18;;;;;;;8.18;4.18;;;9.30;96.70;;;;;;5042755;28;20029;-73
2023/04/11 04:59:44;;;;;;;5.43;3.03;;;9.30;96.60;;;;;;5042446;28;20359;-73
2023/04/11 05:02:10;;;;;;;7.25;4.32;;;9.10;97.00;;;;;;5040381;28;20147;-73
2023/04/11 05:04:36;;;;;;;7.13;4.10;;;9.00;97.20;;;;;;5042448;28;20048;-73
2023/04/11 05:07:01;;;;;;;7.10;3.97;;;9.10;97.00;;;;;;5040070;28;20040;-73
2023/04/11 05:09:27;;;;;;;8.05;3.80;;;9.20;96.90;;;;;;5041449;28;20036;-73
2023/04/11 05:11:53;;;;;;;8.23;4.78;;;9.40;96.60;;;;;;5041069;28;20044;-73
2023/04/11 05:14:18;;;;;;;7.70;4.85;;;9.40;96.60;;;;;;5041881;28;20386;-73
2023/04/11 05:16:45;;;;;;;7.45;4.20;;;9.50;96.60;;;;;;5042948;28;20486;-73
2023/04/11 05:19:10;;;;;;;7.90;4.57;;;9.50;96.40;;;;;;5042261;28;20031;-73
2023/04/11 05:21:37;;;;;;;7.53;3.72;;;9.60;96.40;;;;;;5041101;28;20100;-73
2023/04/11 05:24:03;;;;;;;8.02;4.80;;;9.70;96.50;;;;;;5037407;28;20031;-74
2023/04/11 05:26:30;;;;;;;7.32;4.15;;;9.70;96.60;;;;;;5041639;28;20025;-73
2023/04/11 05:28:57;;;;;;;7.10;4.15;;;9.70;96.40;;;;;;5041621;28;20025;-74
2023/04/11 05:31:24;;;;;;;9.68;4.28;;;9.60;96.20;;;;;;5039209;28;20117;-73
2023/04/11 05:33:50;;;;;;;8.20;4.70;;;9.50;96.30;;;;;;5042953;28;20110;-76
2023/04/11 05:36:16;;;;;;;6.80;4.70;;;9.50;96.30;;;;;;5045007;28;20040;-74
2023/04/11 05:38:43;;;;;;;9.05;5.10;;;9.50;96.40;;;;;;5042985;28;20033;-74
2023/04/11 05:41:09;;;;;;;7.88;5.07;;;9.60;96.40;;;;;;5040925;28;20072;-74
2023/04/11 05:43:36;;;;;;;7.65;4.65;;;9.50;96.70;;;;;;5041707;28;20040;-74
2023/04/11 05:46:02;;;;;;;11.02;4.53;;;9.60;96.30;;;;;;5041975;28;20560;-74
2023/04/11 05:48:28;;;;;;;9.75;4.55;;;9.70;96.20;;;;;;5041308;28;20053;-74
2023/04/11 05:50:54;;;;;;;7.97;5.22;;;9.80;96.00;;;;;;5039349;28;20041;-74
2023/04/11 05:53:20;;;;;;;8.13;4.65;;;10.00;96.20;;;;;;5041713;28;20053;-74
2023/04/11 05:55:46;;;;;;;9.98;4.80;;;10.00;96.20;;;;;;5040563;28;20021;-73
2023/04/11 05:58:11;;;;;;;10.57;3.95;;;10.00;96.50;;;;;;5040505;28;20124;-74
2023/04/11 06:00:37;;;;;;;7.68;4.30;;;9.90;96.80;;;;;;5042141;28;20044;-74
2023/04/11 06:03:04;;;;;;;6.85;3.80;;;9.90;97.00;;;;;;5040591;28;20481;-74
2023/04/11 06:05:31;;;;;;;6.97;3.97;;;10.00;96.80;;;;;;5040620;28;20041;-74
2023/04/11 06:07:58;;;;;;;8.18;4.40;;;10.00;96.40;;;;;;5041263;28;20108;-74
2023/04/11 06:10:24;;;;;;;13.57;3.88;;;10.10;96.20;;;;;;5041229;28;20049;-74
2023/04/11 06:12:50;;;;;;;12.15;4.35;;;10.10;96.10;;;;;;5040801;28;20035;-74
2023/04/11 06:15:16;;;;;;;8.25;5.03;;;10.30;96.10;;;;;;5041141;28;20052;-74
2023/04/11 06:17:42;;;;;;;7.57;4.60;;;10.30;96.30;;;;;;5041533;28;20106;-74
2023/04/11 06:20:09;;;;;;;15.13;6.07;;;10.40;96.80;;;;;;5040719;28;20155;-74
2023/04/11 06:22:35;;;;;;;7.28;4.38;;;10.40;96.80;;;;;;5039086;28;20041;-74
2023/04/11 06:25:00;;;;;;;10.35;4.75;;;10.50;96.80;;;;;;5041135;28;20600;-73
2023/04/11 06:27:26;;;;;;;20.33;4.75;;;10.50;96.80;;;;;;5038807;28;20068;-72
2023/04/11 06:29:52;;;;;;;6.30;3.42;;;10.50;97.40;;;;;;5037946;28;20190;-73
2023/04/11 06:32:18;;;;;;;14.20;5.00;;;10.20;97.60;;;;;;5041634;28;20146;-73
2023/04/11 06:34:44;;;;;;;12.43;4.95;;;10.30;97.10;;;;;;5037188;28;20029;-72
2023/04/11 06:37:10;;;;;;;8.20;4.28;;;10.40;97.10;;;;;;5038037;28;20048;-71
2023/04/11 06:39:35;;;;;;;10.90;3.72;;;10.50;96.30;;;;;;5038240;28;20086;-72
2023/04/11 06:42:02;;;;;;;13.20;4.60;;;10.60;96.20;;;;;;5042324;28;20074;-72
2023/04/11 06:44:28;;;;;;;6.65;4.05;;;10.50;95.90;;;;;;5044086;28;20029;-71
2023/04/11 06:46:54;;;;;;;8.32;4.20;;;10.70;95.90;;;;;;5039230;28;20029;-72
2023/04/11 06:49:20;;;;;;;6.60;4.55;;;10.90;95.40;;;;;;5042481;28;20037;-71
2023/04/11 06:51:49;;;;;;;7.38;4.05;;;11.50;95.10;;;;;;5038079;28;20038;-71
2023/04/11 06:54:15;;;;;;;9.00;4.25;;;12.00;94.30;;;;;;5036153;28;20495;-72
2023/04/11 06:56:42;;;;;;;24.40;5.85;;;12.20;93.70;;;;;;5044278;28;20143;-71
2023/04/11 06:59:08;;;;;;;39.92;7.53;;;12.50;93.40;;;;;;5042707;28;20029;-72
2023/04/11 07:01:38;;;;;;;7.80;4.13;;;12.50;93.40;;;;;;5042669;28;20112;-72
2023/04/11 07:04:05;;;;;;;10.52;4.25;;;12.20;94.10;;;;;;5044253;28;20025;-72
2023/04/11 07:06:31;;;;;;;8.07;4.28;;;11.70;94.40;;;;;;5042901;28;20094;-73
2023/04/11 07:08:59;;;;;;;6.90;4.22;;;11.40;95.60;;;;;;5039389;28;20036;-71
2023/04/11 07:11:26;;;;;;;11.10;5.45;;;11.30;96.00;;;;;;5041560;28;20403;-74
2023/04/11 07:13:51;;;;;;;9.40;4.88;;;11.20;96.30;;;;;;5046631;28;20459;-72
2023/04/11 07:16:17;;;;;;;7.47;4.88;;;11.40;96.10;;;;;;5045875;28;20118;-72
2023/04/11 07:18:43;;;;;;;9.85;4.60;;;11.80;96.00;;;;;;5047687;28;20171;-72
2023/04/11 07:21:13;;;;;;;9.73;4.40;;;12.00;95.20;;;;;;5047930;28;20049;-72
2023/04/11 07:23:39;;;;;;;8.82;4.38;;;12.20;95.20;;;;;;5048999;28;20454;-73
2023/04/11 07:26:09;;;;;;;5.95;4.05;;;12.10;94.70;;;;;;5040306;28;20033;-72
2023/04/11 07:28:39;;;;;;;7.82;4.85;;;12.00;94.90;;;;;;5044805;28;20033;-71
2023/04/11 07:31:08;;;;;;;8.68;4.72;;;11.90;94.80;;;;;;5046576;28;20517;-71
2023/04/11 07:33:34;;;;;;;8.73;4.07;;;11.90;95.00;;;;;;5035373;28;20033;-75
2023/04/11 07:36:00;;;;;;;10.40;4.00;;;11.90;94.20;;;;;;5048542;28;20501;-72
2023/04/11 07:38:28;;;;;;;6.32;4.00;;;12.00;94.10;;;;;;5047090;28;20184;-71
2023/04/11 07:40:55;;;;;;;9.30;4.13;;;11.90;93.90;;;;;;5048362;28;20032;-71
2023/04/11 07:43:20;;;;;;;15.93;4.88;;;11.90;94.00;;;;;;5038466;28;20043;-71
2023/04/11 07:45:46;;;;;;;7.10;4.25;;;11.80;94.10;;;;;;5030648;28;20470;-71
2023/04/11 07:48:11;;;;;;;7.05;4.15;;;11.70;94.00;;;;;;5047169;28;20021;-71
2023/04/11 07:50:37;;;;;;;8.15;4.80;;;11.80;93.60;;;;;;5047072;28;20142;-72
2023/04/11 07:53:03;;;;;;;7.68;4.10;;;11.90;93.50;;;;;;5048225;28;20047;-73
2023/04/11 07:55:28;;;;;;;7.10;4.13;;;11.90;93.30;;;;;;5047581;28;20033;-74
2023/04/11 07:57:54;;;;;;;6.90;4.32;;;12.00;93.70;;;;;;5046022;28;20028;-73
2023/04/11 08:00:21;;;;;;;18.92;13.40;;;12.10;93.90;;;;;;5037702;28;20024;-74
2023/04/11 08:02:47;;;;;;;8.80;4.70;;;12.10;93.70;;;;;;5037941;28;20120;-73
2023/04/11 08:05:13;;;;;;;12.75;7.30;;;11.90;93.40;;;;;;5041841;28;21366;-73
2023/04/11 08:07:40;;;;;;;7.72;4.68;;;12.00;93.70;;;;;;5045559;28;20182;-73
2023/04/11 08:10:06;;;;;;;11.55;5.93;;;12.10;93.20;;;;;;5049786;28;20060;-73
2023/04/11 08:12:32;;;;;;;28.83;13.27;;;12.30;93.10;;;;;;5047396;28;20447;-75
2023/04/11 08:14:58;;;;;;;11.73;6.50;;;12.40;93.30;;;;;;5047039;28;20025;-74
2023/04/11 08:17:27;;;;;;;9.85;5.13;;;12.60;92.80;;;;;;5039365;28;20040;-74
2023/04/11 08:19:54;;;;;;;11.80;4.90;;;12.70;93.10;;;;;;5045285;28;20403;-74
2023/04/11 08:22:19;;;;;;;6.93;4.53;;;12.70;93.10;;;;;;5045927;28;20043;-74
2023/04/11 08:24:45;;;;;;;11.98;5.97;;;12.60;92.90;;;;;;5043562;28;20033;-74
2023/04/11 08:27:10;;;;;;;10.50;4.82;;;12.70;92.80;;;;;;5046885;28;20029;-74
2023/04/11 08:29:36;;;;;;;8.95;4.97;;;12.70;92.80;;;;;;5046852;28;20171;-74
2023/04/11 08:32:03;;;;;;;35.45;6.68;;;12.60;92.80;;;;;;5046039;28;20029;-74
2023/04/11 08:34:31;;;;;;;14.32;5.60;;;12.90;92.90;;;;;;5039656;28;20502;-73
2023/04/11 08:36:57;;;;;;;10.27;5.43;;;12.90;93.00;;;;;;5046679;28;20033;-73
2023/04/11 08:39:22;;;;;;;16.88;9.25;;;13.10;92.60;;;;;;5045398;28;20044;-74
2023/04/11 08:41:48;;;;;;;9.48;4.85;;;13.00;92.40;;;;;;5043502;28;20033;-75
2023/04/11 08:44:14;;;;;;;10.88;7.20;;;13.00;92.30;;;;;;5045606;28;20071;-75
2023/04/11 08:46:41;;;;;;;8.90;5.85;;;13.00;92.20;;;;;;5044800;28;20446;-75
2023/04/11 08:49:07;;;;;;;9.02;5.78;;;13.20;91.80;;;;;;5044657;28;20029;-75
2023/04/11 08:51:33;;;;;;;13.38;5.90;;;14.10;91.00;;;;;;5042930;28;20045;-75
2023/04/11 08:54:03;;;;;;;9.15;5.65;;;15.70;89.60;;;;;;5049118;28;20032;-74
2023/04/11 08:56:29;;;;;;;9.13;4.65;;;16.10;87.80;;;;;;5046469;28;20036;-75
2023/04/11 08:58:55;;;;;;;9.07;6.10;;;16.20;87.70;;;;;;5046459;28;20025;-75
2023/04/11 09:01:33;;;;;;;11.73;5.82;;;16.70;85.50;;;;;;5047063;28;20028;-75
2023/04/11 09:04:01;;;;;;;12.35;6.85;;;16.80;85.40;;;;;;5047112;28;20612;-74
2023/04/11 09:06:31;;;;;;;10.30;6.22;;;17.60;84.70;;;;;;5045257;28;20021;-75
2023/04/11 09:09:05;;;;;;;8.90;5.97;;;17.40;83.30;;;;;;5039134;28;20107;-75
2023/04/11 09:11:50;;;;;;;12.15;5.97;;;16.80;84.20;;;;;;5040432;28;20383;-74
2023/04/11 09:14:16;;;;;;;8.40;5.35;;;16.90;84.60;;;;;;5049605;28;20078;-74
2023/04/11 09:16:53;;;;;;;9.32;5.53;;;16.80;83.20;;;;;;5043711;28;20501;-74
2023/04/11 09:19:24;;;;;;;9.80;6.32;;;16.70;84.00;;;;;;5044047;28;20021;-74
2023/04/11 09:21:49;;;;;;;9.75;6.57;;;16.00;84.40;;;;;;5045633;28;20052;-74
2023/04/11 09:24:16;;;;;;;10.38;6.30;;;16.10;85.00;;;;;;5044039;28;20048;-75
2023/04/11 09:26:41;;;;;;;11.73;6.13;;;16.40;86.00;;;;;;5044300;28;20060;-75
2023/04/11 09:29:07;;;;;;;9.43;5.63;;;16.70;84.50;;;;;;5045110;28;20075;-74
2023/04/11 09:31:44;;;;;;;8.88;5.68;;;16.50;85.20;;;;;;5043552;28;20052;-75
2023/04/11 09:34:11;;;;;;;8.45;5.70;;;16.70;84.60;;;;;;5038834;28;20048;-75
2023/04/11 09:36:37;;;;;;;9.50;6.22;;;16.40;84.30;;;;;;5035247;28;20079;-75
2023/04/11 09:39:17;;;;;;;8.82;5.43;;;16.10;85.60;;;;;;5032570;28;20043;-75
2023/04/11 09:41:43;;;;;;;11.50;6.70;;;15.80;86.50;;;;;;5036747;28;20025;-76
2023/04/11 09:44:08;;;;;;;9.93;5.30;;;15.70;86.50;;;;;;5036648;28;20047;-75
2023/04/11 09:46:34;;;;;;;16.25;6.38;;;15.20;86.80;;;;;;5040401;28;20047;-75
2023/04/11 09:49:01;;;;;;;11.32;5.85;;;15.30;86.40;;;;;;5044676;28;20162;-75
2023/04/11 09:51:27;;;;;;;9.80;5.93;;;15.30;86.20;;;;;;5034922;28;20037;-75
2023/04/11 09:53:54;;;;;;;8.02;5.53;;;15.20;85.80;;;;;;5061413;28;20741;-75
2023/04/11 09:56:20;;;;;;;10.65;5.32;;;15.40;84.80;;;;;;5044651;28;20037;-74
2023/04/11 09:58:48;;;;;;;9.23;5.95;;;15.50;85.30;;;;;;5039824;28;20025;-77
2023/04/11 10:01:16;;;;;;;9.95;5.90;;;15.70;86.40;;;;;;5034652;28;20062;-75
2023/04/11 10:03:42;;;;;;;8.98;5.82;;;16.10;85.30;;;;;;5044602;28;20063;-75
2023/04/11 10:06:11;;;;;;;11.13;6.72;;;15.90;85.60;;;;;;5044520;28;20028;-75
2023/04/11 10:08:40;;;;;;;13.95;6.95;;;16.20;84.30;;;;;;5044882;28;20021;-74
2023/04/11 10:11:10;;;;;;;9.63;5.80;;;16.20;82.20;;;;;;5043654;28;20028;-75
2023/04/11 10:13:44;;;;;;;14.18;8.02;;;16.30;82.30;;;;;;5045419;28;20031;-74
2023/04/11 10:16:15;;;;;;;7.93;5.60;;;16.70;82.20;;;;;;5044191;28;20029;-75
2023/04/11 10:18:49;;;;;;;8.70;5.75;;;16.50;83.60;;;;;;5036487;28;20025;-75
2023/04/11 10:21:33;;;;;;;;;;;16.50;82.30;;;;;;5034365;28;20667;-75
2023/04/11 10:24:20;;;;;;;21.60;6.40;;;16.80;82.20;;;;;;5039601;28;19909;-75
2023/04/11 10:26:47;;;;;;;8.90;6.35;;;16.50;82.30;;;;;;5040877;28;20033;-75
2023/04/11 10:29:32;;;;;;;8.07;5.30;;;16.60;82.10;;;;;;5036511;28;20123;-75
2023/04/11 10:32:18;;;;;;;10.07;5.97;;;17.00;82.50;;;;;;5037809;28;20036;-75
2023/04/11 10:34:49;;;;;;;7.28;5.03;;;17.10;81.70;;;;;;5035420;28;20037;-75
2023/04/11 10:37:16;;;;;;;15.55;5.55;;;17.00;81.50;;;;;;5036168;28;20037;-75
2023/04/11 10:39:59;;;;;;;24.58;6.20;;;17.00;81.80;;;;;;5038894;28;20082;-75
2023/04/11 10:42:30;;;;;;;9.27;5.75;;;16.80;82.70;;;;;;5034109;28;20029;-75
2023/04/11 10:45:24;;;;;;;10.32;5.85;;;17.00;81.60;;;;;;5036349;28;20132;-75
2023/04/11 10:47:55;;;;;;;10.10;5.97;;;16.70;81.80;;;;;;5034931;28;20035;-75
2023/04/11 10:50:24;;;;;;;10.77;6.70;;;16.50;81.70;;;;;;5037675;28;20135;-75
2023/04/11 10:52:49;;;;;;;10.82;6.47;;;16.90;81.80;;;;;;5035102;28;20116;-74
2023/04/11 10:55:16;;;;;;;9.35;6.32;;;17.10;82.70;;;;;;5039421;28;20099;-74
2023/04/11 10:58:08;;;;;;;10.85;5.70;;;17.30;82.60;;;;;;5043838;28;20474;-73
2023/04/11 11:00:58;;;;;;;11.73;6.88;;;17.40;82.20;;;;;;5036267;28;20029;-77
2023/04/11 11:03:28;;;;;;;10.30;6.05;;;17.30;82.10;;;;;;5034315;28;20041;-76
2023/04/11 11:06:03;;;;;;;10.40;6.47;;;17.20;82.00;;;;;;5038413;28;20022;-75
2023/04/11 11:08:40;;;;;;;9.63;6.10;;;16.80;81.10;;;;;;5041148;28;20589;-76
2023/04/11 11:11:10;;;;;;;11.98;6.43;;;16.70;81.30;;;;;;5041609;28;20581;-78
2023/04/11 11:13:43;;;;;;;13.15;6.75;;;16.80;81.00;;;;;;5042095;28;20033;-75
2023/04/11 11:16:16;;;;;;;15.67;7.37;;;17.00;82.20;;;;;;5043348;28;20036;-76
2023/04/11 11:18:50;;;;;;;11.80;7.37;;;17.20;83.10;;;;;;5041849;28;20033;-77
2023/04/11 11:21:19;;;;;;;11.40;7.25;;;17.30;81.20;;;;;;5038404;28;20536;-76
2023/04/11 11:24:00;;;;;;;11.27;7.10;;;17.10;80.80;;;;;;5040180;28;20033;-76
2023/04/11 11:26:40;;;;;;;11.07;7.00;;;17.20;81.50;;;;;;5040225;28;20155;-75
2023/04/11 11:29:06;;;;;;;13.63;7.70;;;17.20;80.80;;;;;;5040473;28;20029;-75
2023/04/11 11:31:40;;;;;;;12.18;7.28;;;17.20;80.70;;;;;;5035991;28;20136;-74
2023/04/11 11:34:07;;;;;;;13.52;7.30;;;17.10;81.10;;;;;;5039176;28;20134;-76
2023/04/11 11:36:42;;;;;;;13.23;8.23;;;17.40;82.30;;;;;;5040788;28;20105;-75
2023/04/11 11:39:09;;;;;;;12.38;7.55;;;17.40;80.90;;;;;;5041988;28;20425;-76
2023/04/11 11:41:36;;;;;;;9.75;6.90;;;17.50;80.60;;;;;;5038372;28;20094;-76
2023/04/11 11:44:02;;;;;;;14.52;7.75;;;17.80;82.20;;;;;;5036124;28;20040;-75
2023/04/11 11:46:30;;;;;;;17.17;8.07;;;18.00;80.70;;;;;;5037062;28;20043;-76
2023/04/11 11:49:00;;;;;;;13.60;8.07;;;18.00;80.50;;;;;;5036136;28;20074;-74
2023/04/11 11:51:48;;;;;;;11.23;6.95;;;17.60;79.50;;;;;;5038106;28;20036;-75
2023/04/11 11:54:13;;;;;;;12.65;8.27;;;17.70;80.10;;;;;;5038466;28;20029;-75
2023/04/11 11:56:40;;;;;;;14.27;9.10;;;18.00;80.70;;;;;;5033446;28;20033;-76
2023/04/11 11:59:06;;;;;;;17.08;8.50;;;18.30;80.80;;;;;;5033664;28;20029;-76
2023/04/11 12:01:36;;;;;;;12.10;7.88;;;18.20;80.10;;;;;;5045725;28;20024;-76
2023/04/11 12:04:05;;;;;;;11.00;7.20;;;18.30;80.80;;;;;;5046204;28;20036;-76
2023/04/11 12:06:31;;;;;;;17.20;8.13;;;18.20;80.10;;;;;;5043264;28;20021;-76
2023/04/11 12:09:07;;;;;;;15.82;8.30;;;18.20;80.00;;;;;;5043968;28;20406;-75
2023/04/11 12:11:40;;;;;;;13.38;8.52;;;18.10;79.80;;;;;;5046216;28;20041;-76
2023/04/11 12:14:06;;;;;;;14.65;9.60;;;18.20;79.20;;;;;;5038123;28;20536;-73
2023/04/11 12:16:32;;;;;;;13.65;8.60;;;18.40;79.30;;;;;;5044626;28;20040;-75
2023/04/11 12:18:59;;;;;;;15.73;8.63;;;18.50;81.30;;;;;;5045874;28;20037;-76
2023/04/11 12:21:25;;;;;;;19.50;8.25;;;18.40;80.00;;;;;;5046834;28;20517;-76
2023/04/11 12:23:51;;;;;;;13.90;7.90;;;18.50;79.70;;;;;;5047886;28;20033;-76
2023/04/11 12:26:18;;;;;;;13.68;6.53;;;18.80;79.70;;;;;;5047529;28;20036;-76
2023/04/11 12:28:44;;;;;;;10.52;7.15;;;19.10;79.10;;;;;;5046531;28;20036;-75
2023/04/11 12:31:11;;;;;;;10.48;7.15;;;19.20;78.60;;;;;;5047259;28;20055;-75
2023/04/11 12:33:37;;;;;;;15.45;7.18;;;19.30;79.30;;;;;;5045826;28;20025;-75
2023/04/11 12:36:06;;;;;;;14.82;9.52;;;19.40;78.20;;;;;;5045843;28;20025;-76
2023/04/11 12:38:32;;;;;;;17.20;11.48;;;19.30;77.50;;;;;;5044811;28;20048;-75
2023/04/11 12:40:58;;;;;;;12.32;7.97;;;19.10;77.30;;;;;;5026684;28;20612;-74
2023/04/11 12:43:24;;;;;;;13.75;8.32;;;19.20;78.60;;;;;;5036980;28;20502;-76
2023/04/11 12:45:50;;;;;;;15.70;8.95;;;19.00;77.80;;;;;;5044660;28;20049;-76
2023/04/11 12:48:16;;;;;;;15.07;7.95;;;19.00;77.90;;;;;;5043324;28;20040;-76